Time;durP1;ratioP1;P1;durP2;ratioP2;P2;SDS_P1;SDS_P2;PMS_P1;PMS_P2;Temp;Humidity;BMP_temperature;BMP_pressure;BME280_temperature;BME280_humidity;BME280_pressure;Samples;Min_cycle;Max_cycle;Signal;HPM_P1;HPM_P2
2021/06/20 00:01:29;;;;;;;69.90;46.17;;;;;;;-145.50;100.00;65435.88;4908894;29;21047;-51
2021/06/20 00:03:56;;;;;;;67.80;44.70;;;;;;;-145.50;100.00;65435.88;4899174;29;20059;-51
2021/06/20 00:06:28;;;;;;;70.32;45.65;;;;;;;-145.50;100.00;65435.88;4898632;29;20171;-51
2021/06/20 00:08:56;;;;;;;74.43;43.45;;;;;;;-145.50;100.00;65435.88;4896913;29;20725;-50
2021/06/20 00:11:22;;;;;;;;;;;;;;;-145.50;100.00;65435.88;4900246;29;20052;-51
2021/06/20 00:13:50;;;;;;;65.47;41.85;;;;;;;-145.50;100.00;65435.88;4905368;29;20025;-51
2021/06/20 00:16:16;;;;;;;59.30;39.70;;;;;;;-145.50;100.00;65435.88;4906910;29;20138;-50
2021/06/20 00:18:45;;;;;;;62.45;41.35;;;;;;;-145.50;100.00;65435.88;4898483;29;20055;-52
2021/06/20 00:21:12;;;;;;;64.95;42.00;;;;;;;-145.50;100.00;65435.88;4899293;29;20108;-50
2021/06/20 00:23:39;;;;;;;61.53;42.13;;;;;;;-145.50;100.00;65435.88;4903871;29;20146;-50
2021/06/20 00:26:06;;;;;;;62.75;42.58;;;;;;;-145.50;100.00;65435.88;4901656;29;20147;-51
2021/06/20 00:28:32;;;;;;;60.13;40.97;;;;;;;-145.50;100.00;65435.88;4907713;29;20143;-51
2021/06/20 00:30:59;;;;;;;56.33;38.55;;;;;;;-145.50;100.00;65435.88;4901537;29;20095;-50
2021/06/20 00:33:25;;;;;;;62.53;41.15;;;;;;;-145.50;100.00;65435.88;4906873;29;20852;-49
2021/06/20 00:35:52;;;;;;;61.85;42.00;;;;;;;-145.50;100.00;65435.88;4901714;29;20094;-50
2021/06/20 00:38:19;;;;;;;59.38;39.85;;;;;;;-145.50;100.00;65435.88;4898725;29;20087;-52
2021/06/20 00:40:45;;;;;;;68.15;41.65;;;;;;;-145.50;100.00;65435.88;4907635;29;20143;-50
2021/06/20 00:43:11;;;;;;;60.75;40.08;;;;;;;-145.50;100.00;65435.88;4900891;29;20087;-50
2021/06/20 00:45:39;;;;;;;59.72;39.42;;;;;;;-145.50;100.00;65435.88;4907502;29;20460;-51
2021/06/20 00:48:05;;;;;;;58.05;40.38;;;;;;;-145.50;100.00;65435.88;4898689;29;20147;-54
2021/06/20 00:50:32;;;;;;;55.47;38.67;;;;;;;-145.50;100.00;65435.88;4900096;29;20622;-51
2021/06/20 00:53:00;;;;;;;58.33;39.40;;;;;;;-145.50;100.00;65435.88;4904917;29;20469;-51
2021/06/20 00:55:32;;;;;;;59.60;40.88;;;;;;;-145.50;100.00;65435.88;4895394;29;20167;-53
2021/06/20 00:58:00;;;;;;;55.17;37.58;;;;;;;-145.50;100.00;65435.88;4907571;29;20091;-51
2021/06/20 01:00:27;;;;;;;60.80;39.38;;;;;;;-145.50;100.00;65435.88;4881351;29;20063;-50
2021/06/20 01:02:54;;;;;;;59.07;39.70;;;;;;;-145.50;100.00;65435.88;4897979;29;20587;-50
2021/06/20 01:05:22;;;;;;;61.30;40.22;;;;;;;-145.50;100.00;65435.88;4897160;29;20083;-51
2021/06/20 01:07:51;;;;;;;55.40;38.47;;;;;;;-145.50;100.00;65435.88;4900063;29;20690;-52
2021/06/20 01:10:19;;;;;;;55.30;39.50;;;;;;;-145.50;100.00;65435.88;4907125;29;20203;-50
2021/06/20 01:13:16;;;;;;;57.15;39.80;;;;;;;-145.50;100.00;65435.88;4903461;29;20139;-53
2021/06/20 01:16:05;;;;;;;54.85;37.55;;;;;;;-145.50;100.00;65435.88;4904983;29;20138;-53
2021/06/20 01:18:52;;;;;;;55.67;37.67;;;;;;;-145.50;100.00;65435.88;4900779;29;20056;-52
2021/06/20 01:21:42;;;;;;;54.97;37.72;;;;;;;-145.50;100.00;65435.88;4907274;29;20080;-50
2021/06/20 01:24:29;;;;;;;57.05;34.58;;;;;;;-145.50;100.00;65435.88;4899068;29;20144;-54
2021/06/20 01:27:16;;;;;;;46.63;31.77;;;;;;;-145.50;100.00;65435.88;4904420;29;20499;-52
2021/06/20 01:30:04;;;;;;;47.53;33.23;;;;;;;-145.50;100.00;65435.88;4901703;29;20162;-53
2021/06/20 01:32:53;;;;;;;46.00;31.80;;;;;;;-145.50;100.00;65435.88;4885358;29;20142;-50
2021/06/20 01:35:40;;;;;;;44.60;29.33;;;;;;;-145.50;100.00;65435.88;4901592;29;20502;-52
2021/06/20 01:38:28;;;;;;;40.35;28.13;;;;;;;-145.50;100.00;65435.88;4897715;29;20179;-52
2021/06/20 01:41:14;;;;;;;39.83;27.58;;;;;;;-145.50;100.00;65435.88;4898092;29;20086;-51
2021/06/20 01:43:58;;;;;;;35.60;25.40;;;;;;;-145.50;100.00;65435.88;4902633;29;20151;-51
2021/06/20 01:46:47;;;;;;;34.42;23.42;;;;;;;-145.50;100.00;65435.88;4896171;29;20492;-50
2021/06/20 01:49:34;;;;;;;43.95;29.98;;;;;;;-145.50;100.00;65435.88;4906498;29;20066;-53
2021/06/20 01:52:22;;;;;;;45.13;31.75;;;;;;;-145.50;100.00;65435.88;4887827;29;20083;-51
2021/06/20 01:55:03;;;;;;;54.22;34.13;;;;;;;-145.50;100.00;65435.88;4905789;29;20090;-51
2021/06/20 01:57:52;;;;;;;50.45;34.75;;;;;;;-145.50;100.00;65435.88;4898131;29;20152;-52
2021/06/20 02:00:41;;;;;;;45.53;32.17;;;;;;;-145.50;100.00;65435.88;4904611;29;20052;-51
2021/06/20 02:03:29;;;;;;;49.03;33.03;;;;;;;-145.50;100.00;65435.88;4899729;29;20171;-51
2021/06/20 02:06:00;;;;;;;48.92;32.65;;;;;;;-145.50;100.00;65435.88;4905762;29;20139;-50
2021/06/20 02:08:46;;;;;;;48.90;33.78;;;;;;;-145.50;100.00;65435.88;4900533;29;20170;-51
2021/06/20 02:11:22;;;;;;;48.13;32.50;;;;;;;-145.50;100.00;65435.88;4902117;29;20052;-52
2021/06/20 02:14:07;;;;;;;45.58;30.73;;;;;;;-145.50;100.00;65435.88;4900246;29;20166;-50
2021/06/20 02:16:54;;;;;;;51.45;33.03;;;;;;;-145.50;100.00;65435.88;4910427;29;20064;-51
2021/06/20 02:19:41;;;;;;;49.97;33.30;;;;;;;-145.50;100.00;65435.88;4899051;29;20060;-51
2021/06/20 02:22:28;;;;;;;50.00;32.95;;;;;;;-145.50;100.00;65435.88;4905213;29;20413;-50
2021/06/20 02:25:16;;;;;;;45.03;31.35;;;;;;;-145.50;100.00;65435.88;4900692;29;20148;-52
2021/06/20 02:28:02;;;;;;;44.08;32.05;;;;;;;-145.50;100.00;65435.88;4896366;29;20079;-50
2021/06/20 02:30:34;;;;;;;46.47;31.08;;;;;;;-145.50;100.00;65435.88;4904370;29;20143;-51
2021/06/20 02:33:21;;;;;;;50.17;33.78;;;;;;;-145.50;100.00;65435.88;4908442;29;20462;-51
2021/06/20 02:36:08;;;;;;;49.50;34.40;;;;;;;-145.50;100.00;65435.88;4894187;29;20103;-50
2021/06/20 02:38:55;;;;;;;52.78;34.78;;;;;;;-145.50;100.00;65435.88;4897376;29;20151;-51
2021/06/20 02:41:44;;;;;;;44.65;32.05;;;;;;;-145.50;100.00;65435.88;4887443;29;20381;-51
2021/06/20 02:44:13;;;;;;;47.53;32.53;;;;;;;-145.50;100.00;65435.88;4902776;29;20163;-50
2021/06/20 02:46:41;;;;;;;48.47;34.17;;;;;;;-145.50;100.00;65435.88;4891600;29;20162;-52
2021/06/20 02:49:08;;;;;;;;;;;;;;;-145.50;100.00;65435.88;4893445;29;20483;-51
2021/06/20 02:51:34;;;;;;;57.95;35.03;;;;;;;-145.50;100.00;65435.88;4905122;29;20765;-52
2021/06/20 02:54:12;;;;;;;58.47;37.47;;;;;;;-145.50;100.00;65435.88;4901407;29;20571;-50
2021/06/20 02:56:58;;;;;;;64.82;40.45;;;;;;;-145.50;100.00;65435.88;4909436;29;20052;-50
2021/06/20 02:59:25;;;;;;;70.15;44.72;;;;;;;-145.50;100.00;65435.88;4902688;29;20143;-53
2021/06/20 03:02:13;;;;;;;72.68;44.03;;;;;;;-145.50;100.00;65435.88;4908085;29;20044;-50
2021/06/20 03:05:00;;;;;;;75.30;44.88;;;;;;;-145.50;100.00;65435.88;4902712;29;20202;-51
2021/06/20 03:07:27;;;;;;;78.43;45.88;;;;;;;-145.50;100.00;65435.88;4887929;29;20153;-53
2021/06/20 03:09:59;;;;;;;71.35;44.88;;;;;;;-145.50;100.00;65435.88;4900143;29;20107;-51
2021/06/20 03:12:26;;;;;;;73.03;45.88;;;;;;;-145.50;100.00;65435.88;4909018;29;20143;-54
2021/06/20 03:14:52;;;;;;;74.53;46.47;;;;;;;-145.50;100.00;65435.88;4903052;29;20052;-51
2021/06/20 03:17:19;;;;;;;76.15;47.40;;;;;;;-145.50;100.00;65435.88;4909713;29;20823;-50
2021/06/20 03:19:47;;;;;;;74.97;43.80;;;;;;;-145.50;100.00;65435.88;4902426;29;20084;-51
2021/06/20 03:22:13;;;;;;;78.55;46.88;;;;;;;-145.50;100.00;65435.88;4902626;29;20088;-50
2021/06/20 03:24:44;;;;;;;76.93;47.90;;;;;;;-145.50;100.00;65435.88;4903692;29;20387;-51
2021/06/20 03:27:10;;;;;;;77.13;48.00;;;;;;;-145.50;100.00;65435.88;4901622;29;20699;-50
2021/06/20 03:29:37;;;;;;;77.38;48.47;;;;;;;-145.50;100.00;65435.88;4905195;29;20052;-50
2021/06/20 03:32:05;;;;;;;79.55;49.28;;;;;;;-145.50;100.00;65435.88;4901033;29;21104;-50
2021/06/20 03:34:32;;;;;;;83.22;49.35;;;;;;;-145.50;100.00;65435.88;4904020;29;20092;-50
2021/06/20 03:37:00;;;;;;;85.80;51.67;;;;;;;-145.50;100.00;65435.88;4891567;29;20161;-50
2021/06/20 03:39:27;;;;;;;79.50;49.08;;;;;;;-145.50;100.00;65435.88;4894309;29;20051;-51
2021/06/20 03:41:53;;;;;;;85.55;50.90;;;;;;;-145.50;100.00;65435.88;4907796;29;20052;-51
2021/06/20 03:44:20;;;;;;;81.35;48.80;;;;;;;-145.50;100.00;65435.88;4890339;29;20179;-51
2021/06/20 03:46:46;;;;;;;88.18;49.92;;;;;;;-145.50;100.00;65435.88;4905434;29;20135;-52
2021/06/20 03:49:13;;;;;;;88.90;51.88;;;;;;;-145.50;100.00;65435.88;4899424;29;20052;-54
2021/06/20 03:51:40;;;;;;;89.40;53.67;;;;;;;-145.50;100.00;65435.88;4906039;29;20162;-50
2021/06/20 03:54:06;;;;;;;87.88;49.97;;;;;;;-145.50;100.00;65435.88;4902655;29;20560;-54
2021/06/20 03:56:33;;;;;;;92.47;51.85;;;;;;;-145.50;100.00;65435.88;4909453;29;20579;-54
2021/06/20 03:59:00;;;;;;;81.40;49.03;;;;;;;-145.50;100.00;65435.88;4908224;29;20140;-53
2021/06/20 04:01:27;;;;;;;83.25;49.58;;;;;;;-145.50;100.00;65435.88;4901664;29;20211;-52
2021/06/20 04:03:53;;;;;;;76.60;46.88;;;;;;;-145.50;100.00;65435.88;4899297;29;20074;-51
2021/06/20 04:06:27;;;;;;;85.65;48.28;;;;;;;-145.50;100.00;65435.88;4890300;29;20120;-50
2021/06/20 04:09:14;;;;;;;85.25;47.97;;;;;;;-145.50;100.00;65435.88;4907683;29;20588;-51
2021/06/20 04:12:01;;;;;;;82.65;46.60;;;;;;;-145.50;100.00;65435.88;4902222;29;20555;-51
2021/06/20 04:14:48;;;;;;;78.43;45.53;;;;;;;-145.50;100.00;65435.88;4902964;29;20166;-54
2021/06/20 04:17:36;;;;;;;77.25;44.40;;;;;;;-145.50;100.00;65435.88;4890434;29;20139;-51
2021/06/20 04:20:24;;;;;;;78.28;42.17;;;;;;;-145.50;100.00;65435.88;4905508;29;20150;-50
2021/06/20 04:23:11;;;;;;;78.18;43.20;;;;;;;-145.50;100.00;65435.88;4900108;29;20154;-51
2021/06/20 04:25:58;;;;;;;91.25;48.03;;;;;;;-145.50;100.00;65435.88;4907358;29;20147;-52
2021/06/20 04:28:45;;;;;;;87.75;46.40;;;;;;;-145.50;100.00;65435.88;4896468;29;20151;-50
2021/06/20 04:31:32;;;;;;;81.65;43.50;;;;;;;-145.50;100.00;65435.88;4895897;29;20536;-52
2021/06/20 04:34:19;;;;;;;94.15;47.15;;;;;;;-145.50;100.00;65435.88;4893082;29;20140;-51
2021/06/20 04:37:06;;;;;;;87.32;45.88;;;;;;;-145.50;100.00;65435.88;4898938;29;20084;-51
2021/06/20 04:39:53;;;;;;;85.80;47.00;;;;;;;-145.50;100.00;65435.88;4894992;29;20524;-51
2021/06/20 04:42:42;;;;;;;88.97;46.95;;;;;;;-145.50;100.00;65435.88;4902440;29;20147;-54
2021/06/20 04:45:30;;;;;;;102.47;49.80;;;;;;;-145.50;100.00;65435.88;4889147;29;20139;-52
2021/06/20 04:48:17;;;;;;;88.63;49.17;;;;;;;-145.50;100.00;65435.88;4902931;29;20056;-51
2021/06/20 04:51:07;;;;;;;106.32;52.08;;;;;;;-145.50;100.00;65435.88;4895948;29;20052;-51
2021/06/20 04:53:54;;;;;;;99.93;50.15;;;;;;;-145.50;100.00;65435.88;4894590;29;20770;-52
2021/06/20 04:56:42;;;;;;;96.70;49.58;;;;;;;-145.50;100.00;65435.88;4882921;29;20671;-51
2021/06/20 04:59:29;;;;;;;97.43;50.33;;;;;;;-145.50;100.00;65435.88;4903803;29;20175;-54
2021/06/20 05:02:17;;;;;;;97.80;49.08;;;;;;;-145.50;100.00;65435.88;4891971;29;21122;-51
2021/06/20 05:05:05;;;;;;;104.38;49.88;;;;;;;-145.50;100.00;65435.88;4907651;29;20173;-52
2021/06/20 05:07:52;;;;;;;90.78;47.42;;;;;;;-145.50;100.00;65435.88;4885933;29;20477;-51
2021/06/20 05:10:39;;;;;;;87.13;45.75;;;;;;;-145.50;100.00;65435.88;4879116;29;20143;-51
2021/06/20 05:13:27;;;;;;;90.13;44.58;;;;;;;-145.50;100.00;65435.88;4891395;29;20162;-51
2021/06/20 05:16:14;;;;;;;85.07;44.22;;;;;;;-145.50;100.00;65435.88;4889859;29;20132;-51
2021/06/20 05:19:01;;;;;;;91.70;45.60;;;;;;;-145.50;100.00;65435.88;4895660;29;20051;-51
2021/06/20 05:21:48;;;;;;;96.03;48.40;;;;;;;-145.50;100.00;65435.88;4898498;29;20057;-52
2021/06/20 05:24:39;;;;;;;91.73;46.37;;;;;;;-145.50;100.00;65435.88;4892094;29;20167;-54
2021/06/20 05:27:27;;;;;;;87.35;45.15;;;;;;;-145.50;100.00;65435.88;4897625;29;20138;-51
2021/06/20 05:30:14;;;;;;;89.22;43.72;;;;;;;-145.50;100.00;65435.88;4896106;29;20647;-51
2021/06/20 05:33:01;;;;;;;100.00;45.47;;;;;;;-145.50;100.00;65435.88;4896996;29;20139;-51
2021/06/20 05:35:48;;;;;;;85.93;43.03;;;;;;;-145.50;100.00;65435.88;4895767;29;20083;-51
2021/06/20 05:38:36;;;;;;;88.65;43.33;;;;;;;-145.50;100.00;65435.88;4890223;29;20084;-52
2021/06/20 05:41:24;;;;;;;87.82;44.55;;;;;;;-145.50;100.00;65435.88;4900530;29;20087;-52
2021/06/20 05:44:11;;;;;;;92.38;45.60;;;;;;;-145.50;100.00;65435.88;4891151;29;20166;-51
2021/06/20 05:46:59;;;;;;;86.57;43.83;;;;;;;-145.50;100.00;65435.88;4895673;29;20815;-52
2021/06/20 05:49:46;;;;;;;86.15;44.38;;;;;;;-145.50;100.00;65435.88;4906775;29;20099;-51
2021/06/20 05:52:33;;;;;;;85.80;43.58;;;;;;;-145.50;100.00;65435.88;4885898;29;20142;-52
2021/06/20 05:55:20;;;;;;;99.32;45.08;;;;;;;-145.50;100.00;65435.88;4905716;29;20545;-52
2021/06/20 05:58:08;;;;;;;93.47;45.40;;;;;;;-145.50;100.00;65435.88;4900614;29;20060;-55
2021/06/20 06:00:55;;;;;;;97.70;47.08;;;;;;;-145.50;100.00;65435.88;4896495;29;20136;-53
2021/06/20 06:03:42;;;;;;;96.70;46.80;;;;;;;-145.50;100.00;65435.88;4881103;29;20097;-51
2021/06/20 06:06:31;;;;;;;95.53;45.92;;;;;;;-145.50;100.00;65435.88;4894106;29;20143;-51
2021/06/20 06:09:17;;;;;;;;;;;;;;;-145.50;100.00;65435.88;4897107;29;20838;-52
2021/06/20 06:12:05;;;;;;;79.45;41.97;;;;;;;-145.50;100.00;65435.88;4889158;29;20432;-52
2021/06/20 06:14:53;;;;;;;;;;;;;;;-145.50;100.00;65435.88;4899297;29;20143;-52
2021/06/20 06:17:41;;;;;;;80.85;40.70;;;;;;;-145.50;100.00;65435.88;4895281;29;19994;-52
2021/06/20 06:20:28;;;;;;;88.30;45.10;;;;;;;-145.50;100.00;65435.88;4898029;29;20142;-51
2021/06/20 06:23:16;;;;;;;87.97;41.10;;;;;;;-145.50;100.00;65435.88;4905503;29;20225;-53
2021/06/20 06:26:03;;;;;;;83.60;39.42;;;;;;;-145.50;100.00;65435.88;4906604;29;20159;-53
2021/06/20 06:28:50;;;;;;;83.53;40.97;;;;;;;-145.50;100.00;65435.88;4899106;29;20214;-54
2021/06/20 06:31:40;;;;;;;83.30;40.28;;;;;;;-145.50;100.00;65435.88;4902798;29;20139;-52
2021/06/20 06:34:28;;;;;;;80.22;40.33;;;;;;;-145.50;100.00;65435.88;4891611;29;20382;-54
2021/06/20 06:37:15;;;;;;;78.83;41.30;;;;;;;-145.50;100.00;65435.88;4888011;29;20079;-52
2021/06/20 06:40:03;;;;;;;79.45;39.30;;;;;;;-145.50;100.00;65435.88;4896339;29;20381;-52
2021/06/20 06:42:50;;;;;;;74.80;39.05;;;;;;;-145.50;100.00;65435.88;4895011;29;20087;-53
2021/06/20 06:45:37;;;;;;;75.07;39.35;;;;;;;-145.50;100.00;65435.88;4895699;29;20459;-52
2021/06/20 06:48:25;;;;;;;85.95;42.10;;;;;;;-145.50;100.00;65435.88;4905385;29;20090;-52
2021/06/20 06:51:12;;;;;;;81.70;41.80;;;;;;;-145.50;100.00;65435.88;4875168;29;20151;-53
2021/06/20 06:54:00;;;;;;;77.27;40.57;;;;;;;-145.50;100.00;65435.88;4904678;29;20160;-54
2021/06/20 06:56:47;;;;;;;76.70;38.83;;;;;;;-145.50;100.00;65435.88;4891455;29;20049;-55
2021/06/20 06:59:34;;;;;;;75.65;41.20;;;;;;;-145.50;100.00;65435.88;4895950;29;20862;-53
2021/06/20 07:02:24;;;;;;;83.50;41.00;;;;;;;-145.50;100.00;65435.88;4884342;29;20063;-53
2021/06/20 07:05:14;;;;;;;81.53;41.03;;;;;;;-145.50;100.00;65435.88;4906494;29;20079;-53
2021/06/20 07:08:02;;;;;;;77.00;40.90;;;;;;;-145.50;100.00;65435.88;4897543;29;20060;-52
2021/06/20 07:10:49;;;;;;;79.15;40.20;;;;;;;-145.50;100.00;65435.88;4890601;29;20083;-51
2021/06/20 07:13:36;;;;;;;79.40;40.85;;;;;;;-145.50;100.00;65435.88;4898040;29;20083;-52
2021/06/20 07:16:24;;;;;;;86.72;40.67;;;;;;;-145.50;100.00;65435.88;4892708;29;20080;-52
2021/06/20 07:19:11;;;;;;;82.23;39.00;;;;;;;-145.50;100.00;65435.88;4896676;29;20067;-52
2021/06/20 07:21:58;;;;;;;75.88;38.70;;;;;;;-145.50;100.00;65435.88;4908220;29;20135;-53
2021/06/20 07:24:45;;;;;;;76.28;40.30;;;;;;;-145.50;100.00;65435.88;4892928;29;20151;-51
2021/06/20 07:27:35;;;;;;;78.40;39.13;;;;;;;-145.50;100.00;65435.88;4894533;29;20146;-51
2021/06/20 07:30:25;;;;;;;82.22;40.40;;;;;;;-145.50;100.00;65435.88;4896546;29;20052;-55
2021/06/20 07:33:12;;;;;;;79.88;39.17;;;;;;;-145.50;100.00;65435.88;4904043;29;20135;-52
2021/06/20 07:35:59;;;;;;;79.18;37.60;;;;;;;-145.50;100.00;65435.88;4899617;29;20491;-55
2021/06/20 07:38:47;;;;;;;71.55;36.78;;;;;;;-145.50;100.00;65435.88;4890864;29;20100;-54
2021/06/20 07:41:34;;;;;;;72.80;36.72;;;;;;;-145.50;100.00;65435.88;4879896;29;20056;-53
2021/06/20 07:44:22;;;;;;;77.63;39.45;;;;;;;-145.50;100.00;65435.88;4908229;29;20170;-53
2021/06/20 07:47:09;;;;;;;71.63;33.70;;;;;;;-145.50;100.00;65435.88;4898902;29;20596;-53
2021/06/20 07:49:56;;;;;;;66.35;33.88;;;;;;;-145.50;100.00;65435.88;4910681;29;20056;-55
2021/06/20 07:52:43;;;;;;;59.97;30.27;;;;;;;-145.50;100.00;65435.88;4899995;29;20147;-53
2021/06/20 07:55:30;;;;;;;63.50;31.92;;;;;;;-145.50;100.00;65435.88;4905156;29;20052;-52
2021/06/20 07:58:18;;;;;;;62.10;32.40;;;;;;;-145.50;100.00;65435.88;4901987;29;20062;-53
2021/06/20 08:01:05;;;;;;;59.47;31.20;;;;;;;-145.50;100.00;65435.88;4906601;29;20175;-54
2021/06/20 08:03:52;;;;;;;59.35;30.23;;;;;;;-145.50;100.00;65435.88;4891474;29;20306;-52
2021/06/20 08:06:42;;;;;;;57.33;31.05;;;;;;;-145.50;100.00;65435.88;4897850;29;20052;-55
2021/06/20 08:09:29;;;;;;;55.05;29.15;;;;;;;-145.50;100.00;65435.88;4897850;29;20691;-55
2021/06/20 08:12:16;;;;;;;56.28;28.92;;;;;;;-145.50;100.00;65435.88;4906720;29;20112;-54
2021/06/20 08:15:04;;;;;;;52.90;28.27;;;;;;;-145.50;100.00;65435.88;4897250;29;20056;-54
2021/06/20 08:17:51;;;;;;;53.67;29.38;;;;;;;-145.50;100.00;65435.88;4908005;29;20176;-52
2021/06/20 08:20:38;;;;;;;57.45;30.67;;;;;;;-145.50;100.00;65435.88;4898589;29;20508;-52
2021/06/20 08:23:17;;;;;;;55.23;29.97;;;;;;;-145.50;100.00;65435.88;4904803;29;20135;-52
2021/06/20 08:25:44;;;;;;;52.75;30.45;;;;;;;-145.50;100.00;65435.88;4902563;29;20056;-53
2021/06/20 08:28:10;;;;;;;49.53;28.88;;;;;;;-145.50;100.00;65435.88;4906429;29;20171;-52
2021/06/20 08:30:37;;;;;;;56.05;30.75;;;;;;;-145.50;100.00;65435.88;4902634;29;20917;-51
2021/06/20 08:33:03;;;;;;;54.75;30.65;;;;;;;-145.50;100.00;65435.88;4901455;29;20060;-52
2021/06/20 08:35:30;;;;;;;50.85;27.65;;;;;;;-145.50;100.00;65435.88;4894696;29;20135;-53
2021/06/20 08:37:56;;;;;;;55.92;29.85;;;;;;;-145.50;100.00;65435.88;4897411;29;20115;-52
2021/06/20 08:40:24;;;;;;;53.75;29.38;;;;;;;-145.50;100.00;65435.88;4907291;29;20060;-51
2021/06/20 08:42:50;;;;;;;56.45;27.75;;;;;;;-145.50;100.00;65435.88;4893896;29;20056;-51
2021/06/20 08:45:17;;;;;;;51.63;28.67;;;;;;;-145.50;100.00;65435.88;4906021;29;20575;-54
2021/06/20 08:47:44;;;;;;;53.33;28.45;;;;;;;-145.50;100.00;65435.88;4897094;29;20063;-53
2021/06/20 08:50:12;;;;;;;56.13;29.03;;;;;;;-145.50;100.00;65435.88;4895324;29;20052;-54
2021/06/20 08:52:38;;;;;;;46.70;25.83;;;;;;;-145.50;100.00;65435.88;4906293;29;20291;-54
2021/06/20 08:55:07;;;;;;;46.90;25.42;;;;;;;-145.50;100.00;65435.88;4900608;29;20135;-51
2021/06/20 08:57:36;;;;;;;48.42;26.45;;;;;;;-145.50;100.00;65435.88;4905235;29;20143;-50
2021/06/20 09:00:05;;;;;;;46.63;23.95;;;;;;;-145.50;100.00;65435.88;4895552;29;20057;-50
2021/06/20 09:02:32;;;;;;;45.75;25.30;;;;;;;-145.50;100.00;65435.88;4900616;29;20139;-52
2021/06/20 09:05:01;;;;;;;47.08;25.75;;;;;;;-145.50;100.00;65435.88;4883740;29;20098;-52
2021/06/20 09:07:46;;;;;;;48.22;25.27;;;;;;;-145.50;100.00;65435.88;4907559;29;20056;-53
2021/06/20 09:10:19;;;;;;;54.17;27.10;;;;;;;-145.50;100.00;65435.88;4901102;29;20698;-51
2021/06/20 09:13:00;;;;;;;46.53;25.98;;;;;;;-145.50;100.00;65435.88;4906565;29;20571;-51
2021/06/20 09:15:29;;;;;;;44.28;25.33;;;;;;;-145.50;100.00;65435.88;4899847;29;20087;-54
2021/06/20 09:18:00;;;;;;;43.33;23.67;;;;;;;-145.50;100.00;65435.88;4893739;29;20560;-52
2021/06/20 09:20:45;;;;;;;40.20;23.48;;;;;;;-145.50;100.00;65435.88;4904662;29;20253;-54
2021/06/20 09:23:17;;;;;;;40.13;24.35;;;;;;;-145.50;100.00;65435.88;4898170;29;20196;-53
2021/06/20 09:25:56;;;;;;;38.20;24.23;;;;;;;-145.50;100.00;65435.88;4905065;29;20087;-53
2021/06/20 09:28:31;;;;;;;40.60;24.20;;;;;;;-145.50;100.00;65435.88;4874343;29;20150;-52
2021/06/20 09:31:01;;;;;;;42.00;23.60;;;;;;;-145.50;100.00;65435.88;4901720;29;20183;-54
2021/06/20 09:33:32;;;;;;;40.20;23.67;;;;;;;-145.50;100.00;65435.88;4895150;29;20087;-54
2021/06/20 09:35:59;;;;;;;39.50;23.02;;;;;;;-145.50;100.00;65435.88;4906311;29;20174;-54
2021/06/20 09:38:28;;;;;;;38.67;21.40;;;;;;;-145.50;100.00;65435.88;4895428;29;20060;-52
2021/06/20 09:41:04;;;;;;;;;;;;;;;-145.50;100.00;65435.88;4897913;29;20091;-53
2021/06/20 09:43:33;;;;;;;34.80;20.17;;;;;;;-145.50;100.00;65435.88;4901780;29;19927;-55
2021/06/20 09:46:00;;;;;;;33.17;21.05;;;;;;;-145.50;100.00;65435.88;4895167;29;20174;-53
2021/06/20 09:48:29;;;;;;;35.95;20.67;;;;;;;-145.50;100.00;65435.88;4903210;29;20104;-55
2021/06/20 09:50:58;;;;;;;36.80;20.00;;;;;;;-145.50;100.00;65435.88;4898532;29;20112;-52
2021/06/20 09:53:33;;;;;;;34.42;18.98;;;;;;;-145.50;100.00;65435.88;4902579;29;20131;-53
2021/06/20 09:56:16;;;;;;;32.05;17.65;;;;;;;-145.50;100.00;65435.88;4886268;29;20504;-55
2021/06/20 09:58:45;;;;;;;30.48;17.17;;;;;;;-145.50;100.00;65435.88;4886190;29;20579;-55
2021/06/20 10:01:14;;;;;;;26.55;15.63;;;;;;;-145.50;100.00;65435.88;4889538;29;20606;-52
2021/06/20 10:03:45;;;;;;;22.27;13.25;;;;;;;-145.50;100.00;65435.88;4897139;29;20083;-52
2021/06/20 10:06:14;;;;;;;22.45;13.40;;;;;;;-145.50;100.00;65435.88;4892509;29;20146;-51
2021/06/20 10:08:41;;;;;;;21.58;13.30;;;;;;;-145.50;100.00;65435.88;4895081;29;20080;-54
2021/06/20 10:11:09;;;;;;;27.88;16.30;;;;;;;-145.50;100.00;65435.88;4890623;29;20151;-54
2021/06/20 10:13:36;;;;;;;27.08;16.27;;;;;;;-145.50;100.00;65435.88;4894790;29;20139;-55
2021/06/20 10:16:11;;;;;;;25.95;16.13;;;;;;;-145.50;100.00;65435.88;4905456;29;20062;-55
2021/06/20 10:18:40;;;;;;;25.63;15.00;;;;;;;-145.50;100.00;65435.88;4892420;29;20469;-53
2021/06/20 10:21:07;;;;;;;26.63;16.05;;;;;;;-145.50;100.00;65435.88;4904190;29;20091;-55
2021/06/20 10:23:33;;;;;;;22.00;15.43;;;;;;;-145.50;100.00;65435.88;4885458;29;20155;-52
2021/06/20 10:26:05;;;;;;;24.95;14.95;;;;;;;-145.50;100.00;65435.88;4894269;29;20060;-52
2021/06/20 10:28:32;;;;;;;27.88;16.70;;;;;;;-145.50;100.00;65435.88;4906719;29;20151;-54
2021/06/20 10:31:11;;;;;;;26.77;17.10;;;;;;;-145.50;100.00;65435.88;4883277;29;20074;-52
2021/06/20 10:33:38;;;;;;;21.20;13.77;;;;;;;-145.50;100.00;65435.88;4908818;29;20103;-53
2021/06/20 10:36:09;;;;;;;21.70;13.75;;;;;;;-145.50;100.00;65435.88;4897351;29;20084;-53
2021/06/20 10:38:47;;;;;;;20.88;12.68;;;;;;;-145.50;100.00;65435.88;4897890;29;20178;-52
2021/06/20 10:41:25;;;;;;;21.08;13.15;;;;;;;-145.50;100.00;65435.88;4898008;29;20062;-53
2021/06/20 10:43:58;;;;;;;;;;;;;;;-145.50;100.00;65435.88;4898723;29;20131;-53
2021/06/20 10:46:25;;;;;;;25.50;15.40;;;;;;;-145.50;100.00;65435.88;4892958;29;20344;-52
2021/06/20 10:48:52;;;;;;;25.10;15.27;;;;;;;-145.50;100.00;65435.88;4909690;29;20135;-53
2021/06/20 10:51:20;;;;;;;27.48;16.00;;;;;;;-145.50;100.00;65435.88;4909123;29;20519;-55
2021/06/20 10:53:46;;;;;;;27.48;17.00;;;;;;;-145.50;100.00;65435.88;4892351;29;20508;-53
2021/06/20 10:56:20;;;;;;;30.42;17.70;;;;;;;-145.50;100.00;65435.88;4901429;29;20103;-54
2021/06/20 10:58:49;;;;;;;28.70;17.60;;;;;;;-145.50;100.00;65435.88;4904693;29;20551;-53
2021/06/20 11:01:17;;;;;;;25.25;16.63;;;;;;;-145.50;100.00;65435.88;4908977;29;20452;-55
2021/06/20 11:03:53;;;;;;;27.02;15.88;;;;;;;-145.50;100.00;65435.88;4876573;29;20104;-55
2021/06/20 11:06:24;;;;;;;27.33;16.58;;;;;;;-145.50;100.00;65435.88;4894392;29;20163;-53
2021/06/20 11:09:03;;;;;;;30.25;17.13;;;;;;;-145.50;100.00;65435.88;4900799;29;20868;-55
2021/06/20 11:11:32;;;;;;;28.75;17.30;;;;;;;-145.50;100.00;65435.88;4910647;29;20115;-52
2021/06/20 11:13:58;;;;;;;28.48;16.73;;;;;;;-145.50;100.00;65435.88;4909335;29;20084;-55
2021/06/20 11:16:37;;;;;;;22.17;14.63;;;;;;;-145.50;100.00;65435.88;4904250;29;20052;-53
2021/06/20 11:19:20;;;;;;;24.27;16.08;;;;;;;-145.50;100.00;65435.88;4910210;29;20107;-52
2021/06/20 11:21:58;;;;;;;28.65;17.25;;;;;;;-145.50;100.00;65435.88;4895632;29;20222;-52
2021/06/20 11:24:32;;;;;;;31.55;17.45;;;;;;;-145.50;100.00;65435.88;4902887;29;20500;-51
2021/06/20 11:27:08;;;;;;;22.85;15.13;;;;;;;-145.50;100.00;65435.88;4892904;29;20136;-52
2021/06/20 11:29:49;;;;;;;22.13;14.13;;;;;;;-145.50;100.00;65435.88;4898871;29;20115;-54
2021/06/20 11:32:17;;;;;;;23.13;14.45;;;;;;;-145.50;100.00;65435.88;4902794;29;20167;-54
2021/06/20 11:34:46;;;;;;;24.73;14.88;;;;;;;-145.50;100.00;65435.88;4903314;29;20613;-52
2021/06/20 11:37:20;;;;;;;24.30;14.75;;;;;;;-145.50;100.00;65435.88;4891591;29;20494;-55
2021/06/20 11:39:49;;;;;;;24.02;14.23;;;;;;;-145.50;100.00;65435.88;4906392;29;20150;-53
2021/06/20 11:42:26;;;;;;;24.38;14.35;;;;;;;-145.50;100.00;65435.88;4907659;29;20056;-52